sensor_id;sensor_type;location;lat;lon;timestamp;P1;durP1;ratioP1;P2;durP2;ratioP2
2464;SDS011;1244;54.326;10.074;2022-11-23T00:01:27;0.40;;;0.40;;
2464;SDS011;1244;54.326;10.074;2022-11-23T00:03:55;0.40;;;0.40;;
2464;SDS011;1244;54.326;10.074;2022-11-23T00:06:22;0.50;;;0.50;;
2464;SDS011;1244;54.326;10.074;2022-11-23T00:08:49;0.40;;;0.40;;
2464;SDS011;1244;54.326;10.074;2022-11-23T00:11:16;0.50;;;0.50;;
2464;SDS011;1244;54.326;10.074;2022-11-23T00:13:42;0.40;;;0.40;;
2464;SDS011;1244;54.326;10.074;2022-11-23T00:16:09;0.60;;;0.60;;
2464;SDS011;1244;54.326;10.074;2022-11-23T00:18:40;0.50;;;0.50;;
2464;SDS011;1244;54.326;10.074;2022-11-23T00:21:07;0.60;;;0.60;;
2464;SDS011;1244;54.326;10.074;2022-11-23T00:23:35;0.50;;;0.50;;
2464;SDS011;1244;54.326;10.074;2022-11-23T00:26:01;0.40;;;0.40;;
2464;SDS011;1244;54.326;10.074;2022-11-23T00:28:27;0.50;;;0.50;;
2464;SDS011;1244;54.326;10.074;2022-11-23T00:30:52;0.50;;;0.50;;
2464;SDS011;1244;54.326;10.074;2022-11-23T00:33:18;0.60;;;0.60;;
2464;SDS011;1244;54.326;10.074;2022-11-23T00:35:43;0.40;;;0.40;;
2464;SDS011;1244;54.326;10.074;2022-11-23T00:38:09;0.50;;;0.50;;
2464;SDS011;1244;54.326;10.074;2022-11-23T00:40:35;0.40;;;0.40;;
2464;SDS011;1244;54.326;10.074;2022-11-23T00:43:00;0.40;;;0.40;;
2464;SDS011;1244;54.326;10.074;2022-11-23T00:45:26;0.50;;;0.50;;
2464;SDS011;1244;54.326;10.074;2022-11-23T00:47:52;0.50;;;0.50;;
2464;SDS011;1244;54.326;10.074;2022-11-23T00:50:17;0.47;;;0.47;;
2464;SDS011;1244;54.326;10.074;2022-11-23T00:52:43;0.50;;;0.50;;
2464;SDS011;1244;54.326;10.074;2022-11-23T00:55:08;0.50;;;0.50;;
2464;SDS011;1244;54.326;10.074;2022-11-23T00:57:34;0.40;;;0.40;;
2464;SDS011;1244;54.326;10.074;2022-11-23T01:00:00;0.40;;;0.40;;
2464;SDS011;1244;54.326;10.074;2022-11-23T01:02:26;0.50;;;0.50;;
2464;SDS011;1244;54.326;10.074;2022-11-23T01:04:51;0.40;;;0.40;;
2464;SDS011;1244;54.326;10.074;2022-11-23T01:07:17;0.47;;;0.47;;
2464;SDS011;1244;54.326;10.074;2022-11-23T01:09:42;0.50;;;0.50;;
2464;SDS011;1244;54.326;10.074;2022-11-23T01:12:08;0.50;;;0.50;;
2464;SDS011;1244;54.326;10.074;2022-11-23T01:14:33;0.50;;;0.50;;
2464;SDS011;1244;54.326;10.074;2022-11-23T01:16:59;0.50;;;0.50;;
2464;SDS011;1244;54.326;10.074;2022-11-23T01:19:24;0.50;;;0.50;;
2464;SDS011;1244;54.326;10.074;2022-11-23T01:21:50;0.50;;;0.50;;
2464;SDS011;1244;54.326;10.074;2022-11-23T01:24:18;0.50;;;0.50;;
2464;SDS011;1244;54.326;10.074;2022-11-23T01:26:49;0.50;;;0.50;;
2464;SDS011;1244;54.326;10.074;2022-11-23T01:29:15;0.60;;;0.60;;
2464;SDS011;1244;54.326;10.074;2022-11-23T01:31:41;0.30;;;0.30;;
2464;SDS011;1244;54.326;10.074;2022-11-23T01:34:06;0.50;;;0.50;;
2464;SDS011;1244;54.326;10.074;2022-11-23T01:36:35;0.40;;;0.40;;
2464;SDS011;1244;54.326;10.074;2022-11-23T01:39:00;0.50;;;0.50;;
2464;SDS011;1244;54.326;10.074;2022-11-23T01:41:29;0.50;;;0.50;;
2464;SDS011;1244;54.326;10.074;2022-11-23T01:46:51;0.40;;;0.40;;
2464;SDS011;1244;54.326;10.074;2022-11-23T01:49:17;0.50;;;0.50;;
2464;SDS011;1244;54.326;10.074;2022-11-23T01:51:43;0.40;;;0.40;;
2464;SDS011;1244;54.326;10.074;2022-11-23T01:56:41;0.40;;;0.40;;
2464;SDS011;1244;54.326;10.074;2022-11-23T01:59:12;0.40;;;0.40;;
2464;SDS011;1244;54.326;10.074;2022-11-23T02:01:40;0.40;;;0.40;;
2464;SDS011;1244;54.326;10.074;2022-11-23T02:04:07;0.50;;;0.50;;
2464;SDS011;1244;54.326;10.074;2022-11-23T02:06:37;0.40;;;0.40;;
2464;SDS011;1244;54.326;10.074;2022-11-23T02:09:04;0.40;;;0.40;;
2464;SDS011;1244;54.326;10.074;2022-11-23T02:11:31;0.50;;;0.50;;
2464;SDS011;1244;54.326;10.074;2022-11-23T02:13:56;0.43;;;0.43;;
2464;SDS011;1244;54.326;10.074;2022-11-23T02:16:22;0.50;;;0.50;;
2464;SDS011;1244;54.326;10.074;2022-11-23T02:18:47;0.50;;;0.50;;
2464;SDS011;1244;54.326;10.074;2022-11-23T02:21:15;0.50;;;0.50;;
2464;SDS011;1244;54.326;10.074;2022-11-23T02:23:43;0.40;;;0.40;;
2464;SDS011;1244;54.326;10.074;2022-11-23T02:26:17;0.50;;;0.50;;
2464;SDS011;1244;54.326;10.074;2022-11-23T02:28:53;0.50;;;0.50;;
2464;SDS011;1244;54.326;10.074;2022-11-23T02:31:22;0.40;;;0.40;;
2464;SDS011;1244;54.326;10.074;2022-11-23T02:33:48;0.40;;;0.40;;
2464;SDS011;1244;54.326;10.074;2022-11-23T02:36:48;0.50;;;0.50;;
2464;SDS011;1244;54.326;10.074;2022-11-23T02:41:48;0.43;;;0.43;;
2464;SDS011;1244;54.326;10.074;2022-11-23T02:44:22;0.40;;;0.40;;
2464;SDS011;1244;54.326;10.074;2022-11-23T02:46:56;0.40;;;0.40;;
2464;SDS011;1244;54.326;10.074;2022-11-23T02:49:22;0.50;;;0.50;;
2464;SDS011;1244;54.326;10.074;2022-11-23T02:51:48;0.60;;;0.60;;
2464;SDS011;1244;54.326;10.074;2022-11-23T02:54:13;0.40;;;0.40;;
2464;SDS011;1244;54.326;10.074;2022-11-23T02:56:39;0.37;;;0.37;;
2464;SDS011;1244;54.326;10.074;2022-11-23T02:59:05;0.50;;;0.50;;
2464;SDS011;1244;54.326;10.074;2022-11-23T03:01:31;0.40;;;0.40;;
2464;SDS011;1244;54.326;10.074;2022-11-23T03:03:56;0.50;;;0.50;;
2464;SDS011;1244;54.326;10.074;2022-11-23T03:06:21;0.40;;;0.40;;
2464;SDS011;1244;54.326;10.074;2022-11-23T03:08:47;0.40;;;0.40;;
2464;SDS011;1244;54.326;10.074;2022-11-23T03:11:12;0.50;;;0.50;;
2464;SDS011;1244;54.326;10.074;2022-11-23T03:13:38;0.40;;;0.40;;
2464;SDS011;1244;54.326;10.074;2022-11-23T03:16:03;0.50;;;0.50;;
2464;SDS011;1244;54.326;10.074;2022-11-23T03:18:29;0.50;;;0.50;;
2464;SDS011;1244;54.326;10.074;2022-11-23T03:20:59;0.50;;;0.50;;
2464;SDS011;1244;54.326;10.074;2022-11-23T03:23:29;0.50;;;0.50;;
2464;SDS011;1244;54.326;10.074;2022-11-23T03:25:55;0.47;;;0.47;;
2464;SDS011;1244;54.326;10.074;2022-11-23T03:28:22;0.50;;;0.50;;
2464;SDS011;1244;54.326;10.074;2022-11-23T03:30:48;0.50;;;0.50;;
2464;SDS011;1244;54.326;10.074;2022-11-23T03:33:13;0.50;;;0.50;;
2464;SDS011;1244;54.326;10.074;2022-11-23T03:35:39;0.50;;;0.50;;
2464;SDS011;1244;54.326;10.074;2022-11-23T03:38:04;0.50;;;0.50;;
2464;SDS011;1244;54.326;10.074;2022-11-23T03:40:30;0.40;;;0.40;;
2464;SDS011;1244;54.326;10.074;2022-11-23T03:42:55;0.40;;;0.40;;
2464;SDS011;1244;54.326;10.074;2022-11-23T03:45:21;0.50;;;0.50;;
2464;SDS011;1244;54.326;10.074;2022-11-23T03:47:46;0.50;;;0.50;;
2464;SDS011;1244;54.326;10.074;2022-11-23T03:50:12;0.50;;;0.50;;
2464;SDS011;1244;54.326;10.074;2022-11-23T03:52:38;0.50;;;0.50;;
2464;SDS011;1244;54.326;10.074;2022-11-23T03:55:04;0.47;;;0.47;;
2464;SDS011;1244;54.326;10.074;2022-11-23T03:57:30;0.47;;;0.47;;
2464;SDS011;1244;54.326;10.074;2022-11-23T03:59:55;0.50;;;0.50;;
2464;SDS011;1244;54.326;10.074;2022-11-23T04:02:21;0.40;;;0.40;;
2464;SDS011;1244;54.326;10.074;2022-11-23T04:04:46;0.40;;;0.40;;
2464;SDS011;1244;54.326;10.074;2022-11-23T04:07:12;0.50;;;0.50;;
2464;SDS011;1244;54.326;10.074;2022-11-23T04:09:37;0.50;;;0.50;;
2464;SDS011;1244;54.326;10.074;2022-11-23T04:12:03;0.50;;;0.50;;
2464;SDS011;1244;54.326;10.074;2022-11-23T04:14:28;0.40;;;0.40;;
2464;SDS011;1244;54.326;10.074;2022-11-23T04:16:54;0.50;;;0.50;;
2464;SDS011;1244;54.326;10.074;2022-11-23T04:19:20;0.40;;;0.40;;
2464;SDS011;1244;54.326;10.074;2022-11-23T04:21:45;0.50;;;0.50;;
2464;SDS011;1244;54.326;10.074;2022-11-23T04:24:11;0.40;;;0.40;;
2464;SDS011;1244;54.326;10.074;2022-11-23T04:26:36;0.33;;;0.33;;
2464;SDS011;1244;54.326;10.074;2022-11-23T04:29:02;0.43;;;0.43;;
2464;SDS011;1244;54.326;10.074;2022-11-23T04:31:27;0.40;;;0.40;;
2464;SDS011;1244;54.326;10.074;2022-11-23T04:33:53;0.40;;;0.40;;
2464;SDS011;1244;54.326;10.074;2022-11-23T04:36:20;0.50;;;0.50;;
2464;SDS011;1244;54.326;10.074;2022-11-23T04:38:46;0.40;;;0.40;;
2464;SDS011;1244;54.326;10.074;2022-11-23T04:41:11;0.50;;;0.50;;
2464;SDS011;1244;54.326;10.074;2022-11-23T04:43:37;0.50;;;0.50;;
2464;SDS011;1244;54.326;10.074;2022-11-23T04:46:02;0.50;;;0.50;;
2464;SDS011;1244;54.326;10.074;2022-11-23T04:48:28;0.43;;;0.43;;
2464;SDS011;1244;54.326;10.074;2022-11-23T04:50:53;0.50;;;0.50;;
2464;SDS011;1244;54.326;10.074;2022-11-23T04:53:19;0.40;;;0.40;;
2464;SDS011;1244;54.326;10.074;2022-11-23T04:55:45;0.40;;;0.40;;
2464;SDS011;1244;54.326;10.074;2022-11-23T04:58:11;0.47;;;0.47;;
2464;SDS011;1244;54.326;10.074;2022-11-23T05:00:37;0.40;;;0.40;;
2464;SDS011;1244;54.326;10.074;2022-11-23T05:03:02;0.40;;;0.40;;
2464;SDS011;1244;54.326;10.074;2022-11-23T05:05:28;0.40;;;0.40;;
2464;SDS011;1244;54.326;10.074;2022-11-23T05:07:53;0.50;;;0.50;;
2464;SDS011;1244;54.326;10.074;2022-11-23T05:10:19;0.47;;;0.47;;
2464;SDS011;1244;54.326;10.074;2022-11-23T05:12:44;0.50;;;0.50;;
2464;SDS011;1244;54.326;10.074;2022-11-23T05:15:11;0.40;;;0.40;;
2464;SDS011;1244;54.326;10.074;2022-11-23T05:17:38;0.40;;;0.40;;
2464;SDS011;1244;54.326;10.074;2022-11-23T05:20:04;0.40;;;0.40;;
2464;SDS011;1244;54.326;10.074;2022-11-23T05:22:30;0.40;;;0.40;;
2464;SDS011;1244;54.326;10.074;2022-11-23T05:24:55;0.50;;;0.50;;
2464;SDS011;1244;54.326;10.074;2022-11-23T05:27:21;0.50;;;0.50;;
2464;SDS011;1244;54.326;10.074;2022-11-23T05:29:46;0.40;;;0.40;;
2464;SDS011;1244;54.326;10.074;2022-11-23T05:32:12;0.40;;;0.40;;
2464;SDS011;1244;54.326;10.074;2022-11-23T05:34:37;0.40;;;0.40;;
2464;SDS011;1244;54.326;10.074;2022-11-23T05:37:03;0.40;;;0.40;;
2464;SDS011;1244;54.326;10.074;2022-11-23T05:39:28;0.40;;;0.40;;
2464;SDS011;1244;54.326;10.074;2022-11-23T05:41:54;0.40;;;0.40;;
2464;SDS011;1244;54.326;10.074;2022-11-23T05:44:19;0.40;;;0.40;;
2464;SDS011;1244;54.326;10.074;2022-11-23T05:46:44;0.40;;;0.40;;
2464;SDS011;1244;54.326;10.074;2022-11-23T05:49:10;0.47;;;0.47;;
2464;SDS011;1244;54.326;10.074;2022-11-23T05:51:36;0.40;;;0.40;;
2464;SDS011;1244;54.326;10.074;2022-11-23T05:54:01;0.40;;;0.40;;
2464;SDS011;1244;54.326;10.074;2022-11-23T05:56:27;0.40;;;0.40;;
2464;SDS011;1244;54.326;10.074;2022-11-23T05:58:54;0.40;;;0.40;;
2464;SDS011;1244;54.326;10.074;2022-11-23T06:01:20;0.40;;;0.40;;
2464;SDS011;1244;54.326;10.074;2022-11-23T06:03:46;0.40;;;0.40;;
2464;SDS011;1244;54.326;10.074;2022-11-23T06:06:13;0.40;;;0.40;;
2464;SDS011;1244;54.326;10.074;2022-11-23T06:08:38;0.40;;;0.40;;
2464;SDS011;1244;54.326;10.074;2022-11-23T06:11:04;0.40;;;0.40;;
2464;SDS011;1244;54.326;10.074;2022-11-23T06:13:30;0.40;;;0.40;;
2464;SDS011;1244;54.326;10.074;2022-11-23T06:15:56;0.40;;;0.40;;
2464;SDS011;1244;54.326;10.074;2022-11-23T06:18:21;0.40;;;0.40;;
2464;SDS011;1244;54.326;10.074;2022-11-23T06:20:47;0.40;;;0.40;;
2464;SDS011;1244;54.326;10.074;2022-11-23T06:23:13;0.50;;;0.50;;
2464;SDS011;1244;54.326;10.074;2022-11-23T06:25:38;0.33;;;0.33;;
2464;SDS011;1244;54.326;10.074;2022-11-23T06:28:04;0.43;;;0.43;;
2464;SDS011;1244;54.326;10.074;2022-11-23T06:30:30;0.40;;;0.40;;
2464;SDS011;1244;54.326;10.074;2022-11-23T06:32:57;0.50;;;0.50;;
2464;SDS011;1244;54.326;10.074;2022-11-23T06:35:26;0.40;;;0.40;;
2464;SDS011;1244;54.326;10.074;2022-11-23T06:37:51;0.50;;;0.50;;
2464;SDS011;1244;54.326;10.074;2022-11-23T06:40:18;0.40;;;0.40;;
2464;SDS011;1244;54.326;10.074;2022-11-23T06:42:44;0.40;;;0.40;;
2464;SDS011;1244;54.326;10.074;2022-11-23T06:45:10;0.40;;;0.40;;
2464;SDS011;1244;54.326;10.074;2022-11-23T06:47:36;0.40;;;0.40;;
2464;SDS011;1244;54.326;10.074;2022-11-23T06:50:01;0.40;;;0.40;;
2464;SDS011;1244;54.326;10.074;2022-11-23T06:52:27;0.50;;;0.50;;
2464;SDS011;1244;54.326;10.074;2022-11-23T06:54:53;0.50;;;0.50;;
2464;SDS011;1244;54.326;10.074;2022-11-23T06:57:18;0.40;;;0.40;;
2464;SDS011;1244;54.326;10.074;2022-11-23T06:59:44;0.40;;;0.40;;
2464;SDS011;1244;54.326;10.074;2022-11-23T07:02:09;0.40;;;0.40;;
2464;SDS011;1244;54.326;10.074;2022-11-23T07:04:35;0.50;;;0.50;;
2464;SDS011;1244;54.326;10.074;2022-11-23T07:07:01;0.40;;;0.40;;
2464;SDS011;1244;54.326;10.074;2022-11-23T07:09:26;0.40;;;0.40;;
2464;SDS011;1244;54.326;10.074;2022-11-23T07:11:52;0.40;;;0.40;;
2464;SDS011;1244;54.326;10.074;2022-11-23T07:14:18;0.40;;;0.40;;
2464;SDS011;1244;54.326;10.074;2022-11-23T07:16:43;0.40;;;0.40;;
2464;SDS011;1244;54.326;10.074;2022-11-23T07:19:09;0.50;;;0.50;;
2464;SDS011;1244;54.326;10.074;2022-11-23T07:21:34;0.40;;;0.40;;
2464;SDS011;1244;54.326;10.074;2022-11-23T07:24:00;0.50;;;0.50;;
2464;SDS011;1244;54.326;10.074;2022-11-23T07:26:25;0.40;;;0.40;;
2464;SDS011;1244;54.326;10.074;2022-11-23T07:28:52;0.40;;;0.40;;
2464;SDS011;1244;54.326;10.074;2022-11-23T07:31:18;0.40;;;0.40;;
2464;SDS011;1244;54.326;10.074;2022-11-23T07:33:44;0.40;;;0.40;;
2464;SDS011;1244;54.326;10.074;2022-11-23T07:36:10;0.50;;;0.50;;
2464;SDS011;1244;54.326;10.074;2022-11-23T07:38:35;0.30;;;0.30;;
2464;SDS011;1244;54.326;10.074;2022-11-23T07:41:01;0.40;;;0.40;;
2464;SDS011;1244;54.326;10.074;2022-11-23T07:43:27;0.40;;;0.40;;
2464;SDS011;1244;54.326;10.074;2022-11-23T07:45:54;0.40;;;0.40;;
2464;SDS011;1244;54.326;10.074;2022-11-23T07:48:20;0.40;;;0.40;;
2464;SDS011;1244;54.326;10.074;2022-11-23T07:50:46;0.40;;;0.40;;
2464;SDS011;1244;54.326;10.074;2022-11-23T07:53:11;0.40;;;0.40;;
2464;SDS011;1244;54.326;10.074;2022-11-23T07:55:37;0.40;;;0.40;;
2464;SDS011;1244;54.326;10.074;2022-11-23T07:58:02;0.40;;;0.40;;
2464;SDS011;1244;54.326;10.074;2022-11-23T08:00:29;0.50;;;0.50;;
2464;SDS011;1244;54.326;10.074;2022-11-23T08:02:58;0.40;;;0.40;;
2464;SDS011;1244;54.326;10.074;2022-11-23T08:05:23;0.40;;;0.40;;
2464;SDS011;1244;54.326;10.074;2022-11-23T08:07:50;0.40;;;0.40;;
2464;SDS011;1244;54.326;10.074;2022-11-23T08:10:16;0.40;;;0.40;;
2464;SDS011;1244;54.326;10.074;2022-11-23T08:12:41;0.40;;;0.40;;
2464;SDS011;1244;54.326;10.074;2022-11-23T08:15:07;0.37;;;0.37;;
2464;SDS011;1244;54.326;10.074;2022-11-23T08:17:33;0.40;;;0.40;;
2464;SDS011;1244;54.326;10.074;2022-11-23T08:19:58;0.30;;;0.30;;
2464;SDS011;1244;54.326;10.074;2022-11-23T08:22:24;0.40;;;0.40;;
2464;SDS011;1244;54.326;10.074;2022-11-23T08:24:51;0.30;;;0.30;;
2464;SDS011;1244;54.326;10.074;2022-11-23T08:27:16;0.40;;;0.40;;
2464;SDS011;1244;54.326;10.074;2022-11-23T08:29:42;0.40;;;0.40;;
2464;SDS011;1244;54.326;10.074;2022-11-23T08:32:07;0.50;;;0.50;;
2464;SDS011;1244;54.326;10.074;2022-11-23T08:34:33;0.40;;;0.40;;
2464;SDS011;1244;54.326;10.074;2022-11-23T08:36:58;0.40;;;0.40;;
2464;SDS011;1244;54.326;10.074;2022-11-23T08:39:24;0.40;;;0.40;;
2464;SDS011;1244;54.326;10.074;2022-11-23T08:41:49;0.30;;;0.30;;
2464;SDS011;1244;54.326;10.074;2022-11-23T08:44:15;0.40;;;0.40;;
2464;SDS011;1244;54.326;10.074;2022-11-23T08:46:40;0.40;;;0.40;;
2464;SDS011;1244;54.326;10.074;2022-11-23T08:49:06;0.40;;;0.40;;
2464;SDS011;1244;54.326;10.074;2022-11-23T08:51:31;0.40;;;0.40;;
2464;SDS011;1244;54.326;10.074;2022-11-23T08:53:57;0.30;;;0.30;;
2464;SDS011;1244;54.326;10.074;2022-11-23T08:56:23;0.40;;;0.40;;
2464;SDS011;1244;54.326;10.074;2022-11-23T08:58:49;0.40;;;0.40;;
2464;SDS011;1244;54.326;10.074;2022-11-23T09:01:15;0.40;;;0.40;;
2464;SDS011;1244;54.326;10.074;2022-11-23T09:03:41;0.30;;;0.30;;
2464;SDS011;1244;54.326;10.074;2022-11-23T09:06:07;0.30;;;0.30;;
2464;SDS011;1244;54.326;10.074;2022-11-23T09:08:33;0.40;;;0.40;;
2464;SDS011;1244;54.326;10.074;2022-11-23T09:11:00;0.40;;;0.40;;
2464;SDS011;1244;54.326;10.074;2022-11-23T09:13:26;0.40;;;0.40;;
2464;SDS011;1244;54.326;10.074;2022-11-23T09:15:56;0.30;;;0.30;;
2464;SDS011;1244;54.326;10.074;2022-11-23T09:18:23;0.40;;;0.40;;
2464;SDS011;1244;54.326;10.074;2022-11-23T09:20:49;0.40;;;0.40;;
2464;SDS011;1244;54.326;10.074;2022-11-23T09:23:14;0.40;;;0.40;;
2464;SDS011;1244;54.326;10.074;2022-11-23T09:25:40;0.40;;;0.40;;
2464;SDS011;1244;54.326;10.074;2022-11-23T09:28:07;0.40;;;0.40;;
2464;SDS011;1244;54.326;10.074;2022-11-23T09:30:33;0.40;;;0.40;;
2464;SDS011;1244;54.326;10.074;2022-11-23T09:32:58;0.30;;;0.30;;
2464;SDS011;1244;54.326;10.074;2022-11-23T09:35:24;0.30;;;0.30;;
2464;SDS011;1244;54.326;10.074;2022-11-23T09:37:56;0.40;;;0.40;;
2464;SDS011;1244;54.326;10.074;2022-11-23T09:40:22;0.30;;;0.30;;
2464;SDS011;1244;54.326;10.074;2022-11-23T09:45:50;0.30;;;0.30;;
2464;SDS011;1244;54.326;10.074;2022-11-23T09:48:26;0.30;;;0.30;;
2464;SDS011;1244;54.326;10.074;2022-11-23T09:51:19;0.40;;;0.40;;
2464;SDS011;1244;54.326;10.074;2022-11-23T09:53:48;0.30;;;0.30;;
2464;SDS011;1244;54.326;10.074;2022-11-23T09:56:20;0.40;;;0.40;;
2464;SDS011;1244;54.326;10.074;2022-11-23T09:58:51;0.40;;;0.40;;
2464;SDS011;1244;54.326;10.074;2022-11-23T10:01:21;0.30;;;0.30;;
2464;SDS011;1244;54.326;10.074;2022-11-23T10:03:48;0.40;;;0.40;;
2464;SDS011;1244;54.326;10.074;2022-11-23T10:06:18;0.40;;;0.40;;
2464;SDS011;1244;54.326;10.074;2022-11-23T10:09:05;0.30;;;0.30;;
2464;SDS011;1244;54.326;10.074;2022-11-23T10:16:59;0.30;;;0.30;;
2464;SDS011;1244;54.326;10.074;2022-11-23T10:22:26;0.30;;;0.30;;
2464;SDS011;1244;54.326;10.074;2022-11-23T10:24:57;0.30;;;0.30;;
2464;SDS011;1244;54.326;10.074;2022-11-23T10:27:27;0.30;;;0.30;;
2464;SDS011;1244;54.326;10.074;2022-11-23T10:29:53;0.30;;;0.30;;
2464;SDS011;1244;54.326;10.074;2022-11-23T10:32:30;0.30;;;0.30;;
2464;SDS011;1244;54.326;10.074;2022-11-23T10:37:50;0.30;;;0.30;;
2464;SDS011;1244;54.326;10.074;2022-11-23T10:40:16;0.30;;;0.30;;
2464;SDS011;1244;54.326;10.074;2022-11-23T10:43:31;0.30;;;0.30;;
2464;SDS011;1244;54.326;10.074;2022-11-23T10:45:38;0.30;;;0.30;;
2464;SDS011;1244;54.326;10.074;2022-11-23T10:48:03;0.20;;;0.20;;
2464;SDS011;1244;54.326;10.074;2022-11-23T10:50:30;0.20;;;0.20;;
2464;SDS011;1244;54.326;10.074;2022-11-23T10:55:30;0.30;;;0.30;;
2464;SDS011;1244;54.326;10.074;2022-11-23T10:58:44;0.30;;;0.30;;
2464;SDS011;1244;54.326;10.074;2022-11-23T11:01:11;0.30;;;0.30;;
2464;SDS011;1244;54.326;10.074;2022-11-23T11:03:37;0.30;;;0.30;;
2464;SDS011;1244;54.326;10.074;2022-11-23T11:06:03;0.20;;;0.20;;
2464;SDS011;1244;54.326;10.074;2022-11-23T11:08:30;0.30;;;0.30;;
2464;SDS011;1244;54.326;10.074;2022-11-23T11:11:09;0.40;;;0.40;;
2464;SDS011;1244;54.326;10.074;2022-11-23T11:13:46;0.30;;;0.30;;
2464;SDS011;1244;54.326;10.074;2022-11-23T11:18:50;0.40;;;0.40;;
2464;SDS011;1244;54.326;10.074;2022-11-23T11:21:22;0.30;;;0.30;;
2464;SDS011;1244;54.326;10.074;2022-11-23T11:24:02;0.30;;;0.30;;
2464;SDS011;1244;54.326;10.074;2022-11-23T11:26:30;0.30;;;0.30;;
2464;SDS011;1244;54.326;10.074;2022-11-23T11:29:05;0.30;;;0.30;;
2464;SDS011;1244;54.326;10.074;2022-11-23T11:31:45;0.20;;;0.20;;
2464;SDS011;1244;54.326;10.074;2022-11-23T11:34:28;0.30;;;0.30;;
2464;SDS011;1244;54.326;10.074;2022-11-23T11:37:33;0.30;;;0.30;;
2464;SDS011;1244;54.326;10.074;2022-11-23T11:45:43;0.30;;;0.30;;
2464;SDS011;1244;54.326;10.074;2022-11-23T11:48:17;0.30;;;0.30;;
2464;SDS011;1244;54.326;10.074;2022-11-23T11:56:43;0.30;;;0.30;;
2464;SDS011;1244;54.326;10.074;2022-11-23T11:59:28;0.30;;;0.30;;
2464;SDS011;1244;54.326;10.074;2022-11-23T12:02:08;0.20;;;0.20;;
2464;SDS011;1244;54.326;10.074;2022-11-23T12:04:44;0.30;;;0.30;;
2464;SDS011;1244;54.326;10.074;2022-11-23T12:07:35;0.30;;;0.30;;
2464;SDS011;1244;54.326;10.074;2022-11-23T12:10:17;0.20;;;0.20;;
2464;SDS011;1244;54.326;10.074;2022-11-23T12:12:44;0.23;;;0.23;;
2464;SDS011;1244;54.326;10.074;2022-11-23T12:15:23;0.30;;;0.30;;
2464;SDS011;1244;54.326;10.074;2022-11-23T12:18:30;0.30;;;0.30;;
2464;SDS011;1244;54.326;10.074;2022-11-23T12:24:22;0.30;;;0.30;;
2464;SDS011;1244;54.326;10.074;2022-11-23T12:27:47;0.30;;;0.30;;
2464;SDS011;1244;54.326;10.074;2022-11-23T12:33:10;0.27;;;0.27;;
2464;SDS011;1244;54.326;10.074;2022-11-23T12:38:47;0.27;;;0.27;;
2464;SDS011;1244;54.326;10.074;2022-11-23T12:44:40;0.20;;;0.20;;
2464;SDS011;1244;54.326;10.074;2022-11-23T12:47:38;0.20;;;0.20;;
2464;SDS011;1244;54.326;10.074;2022-11-23T12:50:42;0.27;;;0.27;;
2464;SDS011;1244;54.326;10.074;2022-11-23T12:53:39;0.30;;;0.30;;
2464;SDS011;1244;54.326;10.074;2022-11-23T12:56:31;0.30;;;0.30;;
2464;SDS011;1244;54.326;10.074;2022-11-23T12:59:10;0.20;;;0.20;;
2464;SDS011;1244;54.326;10.074;2022-11-23T13:01:38;0.20;;;0.20;;
2464;SDS011;1244;54.326;10.074;2022-11-23T13:04:13;0.30;;;0.30;;
2464;SDS011;1244;54.326;10.074;2022-11-23T13:07:04;0.30;;;0.30;;
2464;SDS011;1244;54.326;10.074;2022-11-23T13:20:25;0.30;;;0.30;;
2464;SDS011;1244;54.326;10.074;2022-11-23T13:23:09;0.20;;;0.20;;
2464;SDS011;1244;54.326;10.074;2022-11-23T13:25:34;0.20;;;0.20;;
2464;SDS011;1244;54.326;10.074;2022-11-23T13:28:04;0.20;;;0.20;;
2464;SDS011;1244;54.326;10.074;2022-11-23T13:31:16;0.20;;;0.20;;
2464;SDS011;1244;54.326;10.074;2022-11-23T13:33:38;0.20;;;0.20;;
2464;SDS011;1244;54.326;10.074;2022-11-23T13:36:04;0.20;;;0.20;;
2464;SDS011;1244;54.326;10.074;2022-11-23T13:38:37;0.20;;;0.20;;
2464;SDS011;1244;54.326;10.074;2022-11-23T13:43:57;0.20;;;0.20;;
2464;SDS011;1244;54.326;10.074;2022-11-23T13:46:35;0.20;;;0.20;;
2464;SDS011;1244;54.326;10.074;2022-11-23T13:49:01;0.30;;;0.30;;
2464;SDS011;1244;54.326;10.074;2022-11-23T13:51:31;0.30;;;0.30;;
2464;SDS011;1244;54.326;10.074;2022-11-23T13:58:54;0.30;;;0.30;;
2464;SDS011;1244;54.326;10.074;2022-11-23T14:04:26;0.30;;;0.30;;
2464;SDS011;1244;54.326;10.074;2022-11-23T14:07:03;0.30;;;0.30;;
2464;SDS011;1244;54.326;10.074;2022-11-23T14:09:50;0.30;;;0.30;;
2464;SDS011;1244;54.326;10.074;2022-11-23T14:15:16;0.30;;;0.30;;
2464;SDS011;1244;54.326;10.074;2022-11-23T14:20:26;0.30;;;0.30;;
2464;SDS011;1244;54.326;10.074;2022-11-23T14:28:48;0.30;;;0.30;;
2464;SDS011;1244;54.326;10.074;2022-11-23T14:34:22;0.20;;;0.20;;
2464;SDS011;1244;54.326;10.074;2022-11-23T14:37:09;0.30;;;0.30;;
2464;SDS011;1244;54.326;10.074;2022-11-23T14:40:02;0.40;;;0.40;;
2464;SDS011;1244;54.326;10.074;2022-11-23T14:42:36;0.30;;;0.30;;
2464;SDS011;1244;54.326;10.074;2022-11-23T14:45:10;0.30;;;0.30;;
2464;SDS011;1244;54.326;10.074;2022-11-23T14:47:37;0.30;;;0.30;;
2464;SDS011;1244;54.326;10.074;2022-11-23T14:50:03;0.30;;;0.30;;
2464;SDS011;1244;54.326;10.074;2022-11-23T14:52:32;0.30;;;0.30;;
2464;SDS011;1244;54.326;10.074;2022-11-23T14:55:00;0.30;;;0.30;;
2464;SDS011;1244;54.326;10.074;2022-11-23T14:57:34;0.30;;;0.30;;
2464;SDS011;1244;54.326;10.074;2022-11-23T15:00:05;0.30;;;0.30;;
2464;SDS011;1244;54.326;10.074;2022-11-23T15:02:35;0.30;;;0.30;;
2464;SDS011;1244;54.326;10.074;2022-11-23T15:05:10;0.30;;;0.30;;
2464;SDS011;1244;54.326;10.074;2022-11-23T15:07:41;0.30;;;0.30;;
2464;SDS011;1244;54.326;10.074;2022-11-23T15:12:42;0.30;;;0.30;;
2464;SDS011;1244;54.326;10.074;2022-11-23T15:15:19;0.30;;;0.30;;
2464;SDS011;1244;54.326;10.074;2022-11-23T15:17:53;0.30;;;0.30;;
2464;SDS011;1244;54.326;10.074;2022-11-23T15:20:30;0.30;;;0.30;;
2464;SDS011;1244;54.326;10.074;2022-11-23T15:22:58;0.30;;;0.30;;
2464;SDS011;1244;54.326;10.074;2022-11-23T15:25:25;0.30;;;0.30;;
2464;SDS011;1244;54.326;10.074;2022-11-23T15:27:52;0.30;;;0.30;;
2464;SDS011;1244;54.326;10.074;2022-11-23T15:30:25;0.30;;;0.30;;
2464;SDS011;1244;54.326;10.074;2022-11-23T15:32:59;0.30;;;0.30;;
2464;SDS011;1244;54.326;10.074;2022-11-23T15:35:35;0.30;;;0.30;;
2464;SDS011;1244;54.326;10.074;2022-11-23T15:38:03;0.30;;;0.30;;
2464;SDS011;1244;54.326;10.074;2022-11-23T15:40:35;0.30;;;0.30;;
2464;SDS011;1244;54.326;10.074;2022-11-23T15:43:03;0.30;;;0.30;;
2464;SDS011;1244;54.326;10.074;2022-11-23T15:45:32;0.30;;;0.30;;
2464;SDS011;1244;54.326;10.074;2022-11-23T15:47:59;0.30;;;0.30;;
2464;SDS011;1244;54.326;10.074;2022-11-23T15:50:26;0.30;;;0.30;;
2464;SDS011;1244;54.326;10.074;2022-11-23T15:52:51;0.30;;;0.30;;
2464;SDS011;1244;54.326;10.074;2022-11-23T15:55:17;0.40;;;0.40;;
2464;SDS011;1244;54.326;10.074;2022-11-23T15:57:47;0.40;;;0.40;;
2464;SDS011;1244;54.326;10.074;2022-11-23T16:00:23;0.30;;;0.30;;
2464;SDS011;1244;54.326;10.074;2022-11-23T16:02:50;0.30;;;0.30;;
2464;SDS011;1244;54.326;10.074;2022-11-23T16:05:20;0.30;;;0.30;;
2464;SDS011;1244;54.326;10.074;2022-11-23T16:07:48;0.30;;;0.30;;
2464;SDS011;1244;54.326;10.074;2022-11-23T16:10:18;0.30;;;0.30;;
2464;SDS011;1244;54.326;10.074;2022-11-23T16:12:49;0.30;;;0.30;;
2464;SDS011;1244;54.326;10.074;2022-11-23T16:15:30;0.20;;;0.20;;
2464;SDS011;1244;54.326;10.074;2022-11-23T16:18:02;0.30;;;0.30;;
2464;SDS011;1244;54.326;10.074;2022-11-23T16:20:30;0.30;;;0.30;;
2464;SDS011;1244;54.326;10.074;2022-11-23T16:22:57;0.30;;;0.30;;
2464;SDS011;1244;54.326;10.074;2022-11-23T16:25:25;0.30;;;0.30;;
2464;SDS011;1244;54.326;10.074;2022-11-23T16:27:59;0.30;;;0.30;;
2464;SDS011;1244;54.326;10.074;2022-11-23T16:30:39;0.30;;;0.30;;
2464;SDS011;1244;54.326;10.074;2022-11-23T16:33:12;0.30;;;0.30;;
2464;SDS011;1244;54.326;10.074;2022-11-23T16:35:38;0.30;;;0.30;;
2464;SDS011;1244;54.326;10.074;2022-11-23T16:38:04;0.30;;;0.30;;
2464;SDS011;1244;54.326;10.074;2022-11-23T16:40:30;0.30;;;0.30;;
2464;SDS011;1244;54.326;10.074;2022-11-23T16:42:56;0.30;;;0.30;;